sensor_id;sensor_type;location;lat;lon;timestamp;noise_LAeq;noise_LA_min;noise_LA_max;noise_LA01;noise_LA95
64079;Laerm;51042;49.696;10.808;2023-06-05T00:00:10;41.34;38.08;49.46;;
64079;Laerm;51042;49.696;10.808;2023-06-05T00:02:35;40.82;37.76;48.35;;
64079;Laerm;51042;49.696;10.808;2023-06-05T00:05:01;40.56;38.00;43.37;;
64079;Laerm;51042;49.696;10.808;2023-06-05T00:07:26;40.31;37.59;43.50;;
64079;Laerm;51042;49.696;10.808;2023-06-05T00:09:52;39.99;37.13;47.27;;
64079;Laerm;51042;49.696;10.808;2023-06-05T00:12:17;52.84;37.40;72.24;;
64079;Laerm;51042;49.696;10.808;2023-06-05T00:14:43;39.95;36.93;43.50;;
64079;Laerm;51042;49.696;10.808;2023-06-05T00:17:09;39.95;37.05;42.80;;
64079;Laerm;51042;49.696;10.808;2023-06-05T00:19:34;40.36;37.00;53.49;;
64079;Laerm;51042;49.696;10.808;2023-06-05T00:22:00;40.22;36.95;44.05;;
64079;Laerm;51042;49.696;10.808;2023-06-05T00:24:25;40.32;37.76;42.86;;
64079;Laerm;51042;49.696;10.808;2023-06-05T00:26:50;40.09;37.76;45.22;;
64079;Laerm;51042;49.696;10.808;2023-06-05T00:29:16;40.05;37.37;46.20;;
64079;Laerm;51042;49.696;10.808;2023-06-05T00:31:43;40.05;37.06;45.67;;
64079;Laerm;51042;49.696;10.808;2023-06-05T00:34:08;40.17;37.71;43.37;;
64079;Laerm;51042;49.696;10.808;2023-06-05T00:36:34;40.23;37.31;42.83;;
64079;Laerm;51042;49.696;10.808;2023-06-05T00:39:02;40.40;37.84;42.60;;
64079;Laerm;51042;49.696;10.808;2023-06-05T00:41:27;40.58;37.93;43.62;;
64079;Laerm;51042;49.696;10.808;2023-06-05T00:43:53;40.39;37.96;43.71;;
64079;Laerm;51042;49.696;10.808;2023-06-05T00:46:19;40.48;38.02;43.08;;
64079;Laerm;51042;49.696;10.808;2023-06-05T00:48:45;40.46;37.75;43.92;;
64079;Laerm;51042;49.696;10.808;2023-06-05T00:51:13;40.61;37.98;45.19;;
64079;Laerm;51042;49.696;10.808;2023-06-05T00:53:42;49.38;36.94;66.46;;
64079;Laerm;51042;49.696;10.808;2023-06-05T00:56:08;40.04;37.62;48.21;;
64079;Laerm;51042;49.696;10.808;2023-06-05T00:58:34;40.28;37.70;43.11;;
64079;Laerm;51042;49.696;10.808;2023-06-05T01:01:00;40.03;37.36;48.84;;
64079;Laerm;51042;49.696;10.808;2023-06-05T01:03:30;40.09;37.03;42.76;;
64079;Laerm;51042;49.696;10.808;2023-06-05T01:05:59;51.72;37.64;70.32;;
64079;Laerm;51042;49.696;10.808;2023-06-05T01:08:32;40.78;38.04;44.76;;
64079;Laerm;51042;49.696;10.808;2023-06-05T01:11:09;40.23;37.52;47.33;;
64079;Laerm;51042;49.696;10.808;2023-06-05T01:13:40;40.63;37.85;43.77;;
64079;Laerm;51042;49.696;10.808;2023-06-05T01:16:07;40.91;37.80;45.57;;
64079;Laerm;51042;49.696;10.808;2023-06-05T01:18:35;40.37;37.67;44.81;;
64079;Laerm;51042;49.696;10.808;2023-06-05T01:21:11;51.10;37.74;68.69;;
64079;Laerm;51042;49.696;10.808;2023-06-05T01:23:40;40.37;37.31;43.64;;
64079;Laerm;51042;49.696;10.808;2023-06-05T01:26:12;40.47;37.45;46.33;;
64079;Laerm;51042;49.696;10.808;2023-06-05T01:28:44;40.18;37.56;42.48;;
64079;Laerm;51042;49.696;10.808;2023-06-05T01:31:12;40.50;37.85;43.99;;
64079;Laerm;51042;49.696;10.808;2023-06-05T01:33:57;49.55;37.70;67.99;;
64079;Laerm;51042;49.696;10.808;2023-06-05T01:36:28;40.34;37.82;44.89;;
64079;Laerm;51042;49.696;10.808;2023-06-05T01:38:54;40.29;37.76;43.98;;
64079;Laerm;51042;49.696;10.808;2023-06-05T01:41:21;40.74;37.83;50.51;;
64079;Laerm;51042;49.696;10.808;2023-06-05T01:43:47;49.09;38.59;66.20;;
64079;Laerm;51042;49.696;10.808;2023-06-05T01:46:19;41.17;38.47;45.20;;
64079;Laerm;51042;49.696;10.808;2023-06-05T01:48:46;53.07;38.73;70.66;;
64079;Laerm;51042;49.696;10.808;2023-06-05T01:51:12;60.26;38.60;78.75;;
64079;Laerm;51042;49.696;10.808;2023-06-05T01:53:37;47.63;38.51;63.94;;
64079;Laerm;51042;49.696;10.808;2023-06-05T01:56:03;48.35;38.29;64.21;;
64079;Laerm;51042;49.696;10.808;2023-06-05T01:58:32;52.44;38.07;68.58;;
64079;Laerm;51042;49.696;10.808;2023-06-05T02:00:57;43.15;37.58;60.60;;
64079;Laerm;51042;49.696;10.808;2023-06-05T02:03:23;45.94;39.01;65.41;;
64079;Laerm;51042;49.696;10.808;2023-06-05T02:05:49;47.30;38.78;66.38;;
64079;Laerm;51042;49.696;10.808;2023-06-05T02:08:15;70.27;39.45;87.23;;
64079;Laerm;51042;49.696;10.808;2023-06-05T02:10:45;49.12;38.61;68.41;;
64079;Laerm;51042;49.696;10.808;2023-06-05T02:13:10;50.60;39.49;69.80;;
64079;Laerm;51042;49.696;10.808;2023-06-05T02:15:36;50.04;39.50;70.26;;
64079;Laerm;51042;49.696;10.808;2023-06-05T02:18:02;49.59;38.91;69.39;;
64079;Laerm;51042;49.696;10.808;2023-06-05T02:20:29;47.78;39.59;63.29;;
64079;Laerm;51042;49.696;10.808;2023-06-05T02:22:56;54.52;42.11;70.93;;
64079;Laerm;51042;49.696;10.808;2023-06-05T02:25:22;51.29;42.03;66.30;;
64079;Laerm;51042;49.696;10.808;2023-06-05T02:27:50;45.36;41.67;54.73;;
64079;Laerm;51042;49.696;10.808;2023-06-05T02:30:16;55.74;41.85;71.24;;
64079;Laerm;51042;49.696;10.808;2023-06-05T02:32:42;68.24;41.57;92.85;;
64079;Laerm;51042;49.696;10.808;2023-06-05T02:35:12;48.85;41.20;68.28;;
64079;Laerm;51042;49.696;10.808;2023-06-05T02:37:38;51.29;41.58;65.69;;
64079;Laerm;51042;49.696;10.808;2023-06-05T02:40:09;55.12;41.61;68.53;;
64079;Laerm;51042;49.696;10.808;2023-06-05T02:42:35;50.86;41.72;65.63;;
64079;Laerm;51042;49.696;10.808;2023-06-05T02:45:02;53.89;41.87;67.78;;
64079;Laerm;51042;49.696;10.808;2023-06-05T02:47:28;54.41;41.81;66.88;;
64079;Laerm;51042;49.696;10.808;2023-06-05T02:49:54;53.67;42.03;67.17;;
64079;Laerm;51042;49.696;10.808;2023-06-05T02:52:19;53.61;41.90;71.19;;
64079;Laerm;51042;49.696;10.808;2023-06-05T02:54:45;55.96;42.35;77.12;;
64079;Laerm;51042;49.696;10.808;2023-06-05T02:57:11;52.79;42.67;69.10;;
64079;Laerm;51042;49.696;10.808;2023-06-05T02:59:36;54.71;41.91;71.88;;
64079;Laerm;51042;49.696;10.808;2023-06-05T03:02:07;55.36;41.62;71.04;;
64079;Laerm;51042;49.696;10.808;2023-06-05T03:04:33;54.71;41.51;70.88;;
64079;Laerm;51042;49.696;10.808;2023-06-05T03:06:58;52.35;41.76;67.94;;
64079;Laerm;51042;49.696;10.808;2023-06-05T03:09:32;55.14;41.77;69.04;;
64079;Laerm;51042;49.696;10.808;2023-06-05T03:11:57;53.15;41.28;68.20;;
64079;Laerm;51042;49.696;10.808;2023-06-05T03:14:23;51.86;41.63;68.74;;
64079;Laerm;51042;49.696;10.808;2023-06-05T03:16:48;55.07;41.22;79.09;;
64079;Laerm;51042;49.696;10.808;2023-06-05T03:19:14;55.85;41.64;68.43;;
64079;Laerm;51042;49.696;10.808;2023-06-05T03:21:40;54.18;41.36;72.04;;
64079;Laerm;51042;49.696;10.808;2023-06-05T03:24:10;56.28;41.07;67.46;;
64079;Laerm;51042;49.696;10.808;2023-06-05T03:26:45;65.09;41.45;84.53;;
64079;Laerm;51042;49.696;10.808;2023-06-05T03:29:11;58.90;41.92;70.76;;
64079;Laerm;51042;49.696;10.808;2023-06-05T03:31:36;56.24;41.62;68.94;;
64079;Laerm;51042;49.696;10.808;2023-06-05T03:34:02;56.95;42.06;69.98;;
64079;Laerm;51042;49.696;10.808;2023-06-05T03:36:29;60.57;42.43;70.28;;
64079;Laerm;51042;49.696;10.808;2023-06-05T03:38:56;59.58;42.54;74.57;;
64079;Laerm;51042;49.696;10.808;2023-06-05T03:41:22;61.90;43.71;77.73;;
64079;Laerm;51042;49.696;10.808;2023-06-05T03:43:47;61.20;43.90;73.69;;
64079;Laerm;51042;49.696;10.808;2023-06-05T03:46:15;59.92;43.01;70.45;;
64079;Laerm;51042;49.696;10.808;2023-06-05T03:48:44;60.53;43.22;72.23;;
64079;Laerm;51042;49.696;10.808;2023-06-05T03:51:09;57.61;42.14;70.43;;
64079;Laerm;51042;49.696;10.808;2023-06-05T03:53:35;48.48;41.91;62.02;;
64079;Laerm;51042;49.696;10.808;2023-06-05T03:56:05;57.10;42.50;72.86;;
64079;Laerm;51042;49.696;10.808;2023-06-05T03:58:30;57.26;41.42;72.22;;
64079;Laerm;51042;49.696;10.808;2023-06-05T04:00:56;57.99;41.73;76.18;;
64079;Laerm;51042;49.696;10.808;2023-06-05T04:03:21;58.03;42.90;69.96;;
64079;Laerm;51042;49.696;10.808;2023-06-05T04:05:46;58.18;41.81;71.48;;
64079;Laerm;51042;49.696;10.808;2023-06-05T04:08:12;57.90;42.60;72.99;;
64079;Laerm;51042;49.696;10.808;2023-06-05T04:10:39;57.29;41.83;70.10;;
64079;Laerm;51042;49.696;10.808;2023-06-05T04:13:05;58.57;42.78;74.71;;
64079;Laerm;51042;49.696;10.808;2023-06-05T04:15:31;57.62;42.44;80.12;;
64079;Laerm;51042;49.696;10.808;2023-06-05T04:17:56;67.05;43.85;86.35;;
64079;Laerm;51042;49.696;10.808;2023-06-05T04:20:22;54.65;42.55;69.87;;
64079;Laerm;51042;49.696;10.808;2023-06-05T04:22:48;54.28;42.55;67.03;;
64079;Laerm;51042;49.696;10.808;2023-06-05T04:25:13;59.44;43.22;74.03;;
64079;Laerm;51042;49.696;10.808;2023-06-05T04:27:39;60.17;42.68;71.75;;
64079;Laerm;51042;49.696;10.808;2023-06-05T04:30:06;78.62;42.50;103.92;;
64079;Laerm;51042;49.696;10.808;2023-06-05T04:32:32;62.68;43.05;80.82;;
64079;Laerm;51042;49.696;10.808;2023-06-05T04:35:05;83.47;43.37;110.41;;
64079;Laerm;51042;49.696;10.808;2023-06-05T04:37:40;62.14;43.47;77.03;;
64079;Laerm;51042;49.696;10.808;2023-06-05T04:40:06;61.01;43.10;77.79;;
64079;Laerm;51042;49.696;10.808;2023-06-05T04:42:35;63.15;43.46;81.03;;
64079;Laerm;51042;49.696;10.808;2023-06-05T04:45:03;57.59;42.82;77.58;;
64079;Laerm;51042;49.696;10.808;2023-06-05T04:47:30;56.73;42.09;70.97;;
64079;Laerm;51042;49.696;10.808;2023-06-05T04:50:03;61.20;42.96;73.57;;
64079;Laerm;51042;49.696;10.808;2023-06-05T04:52:30;63.02;43.85;77.09;;
64079;Laerm;51042;49.696;10.808;2023-06-05T04:54:55;61.07;44.26;80.05;;
64079;Laerm;51042;49.696;10.808;2023-06-05T04:57:22;60.37;43.26;70.29;;
64079;Laerm;51042;49.696;10.808;2023-06-05T04:59:49;61.28;43.52;76.27;;
64079;Laerm;51042;49.696;10.808;2023-06-05T05:02:16;66.54;43.68;86.12;;
64079;Laerm;51042;49.696;10.808;2023-06-05T05:04:41;62.47;44.85;75.77;;
64079;Laerm;51042;49.696;10.808;2023-06-05T05:07:07;64.84;42.42;80.90;;
64079;Laerm;51042;49.696;10.808;2023-06-05T05:09:38;58.44;43.69;69.63;;
64079;Laerm;51042;49.696;10.808;2023-06-05T05:12:04;69.76;46.01;88.49;;
64079;Laerm;51042;49.696;10.808;2023-06-05T05:14:29;58.85;43.83;72.55;;
64079;Laerm;51042;49.696;10.808;2023-06-05T05:16:54;57.96;43.45;66.84;;
64079;Laerm;51042;49.696;10.808;2023-06-05T05:19:22;59.53;45.54;79.96;;
64079;Laerm;51042;49.696;10.808;2023-06-05T05:21:47;61.84;43.80;75.08;;
64079;Laerm;51042;49.696;10.808;2023-06-05T05:24:13;60.96;43.65;73.62;;
64079;Laerm;51042;49.696;10.808;2023-06-05T05:26:38;63.50;42.97;77.34;;
64079;Laerm;51042;49.696;10.808;2023-06-05T05:29:05;57.20;43.29;69.25;;
64079;Laerm;51042;49.696;10.808;2023-06-05T05:31:30;61.34;46.50;73.05;;
64079;Laerm;51042;49.696;10.808;2023-06-05T05:33:56;61.28;43.70;72.96;;
64079;Laerm;51042;49.696;10.808;2023-06-05T05:36:23;61.70;46.88;73.46;;
64079;Laerm;51042;49.696;10.808;2023-06-05T05:38:48;60.12;43.53;73.10;;
64079;Laerm;51042;49.696;10.808;2023-06-05T05:41:14;61.46;45.05;71.45;;
64079;Laerm;51042;49.696;10.808;2023-06-05T05:43:39;59.91;45.51;73.18;;
64079;Laerm;51042;49.696;10.808;2023-06-05T05:46:05;65.16;44.80;82.03;;
64079;Laerm;51042;49.696;10.808;2023-06-05T05:48:30;62.67;46.77;74.57;;
64079;Laerm;51042;49.696;10.808;2023-06-05T05:50:55;62.26;48.50;75.88;;
64079;Laerm;51042;49.696;10.808;2023-06-05T05:53:21;58.56;43.79;69.58;;
64079;Laerm;51042;49.696;10.808;2023-06-05T05:55:46;61.70;44.33;74.56;;
64079;Laerm;51042;49.696;10.808;2023-06-05T05:58:11;58.90;42.86;70.80;;
64079;Laerm;51042;49.696;10.808;2023-06-05T06:00:37;64.67;43.78;86.54;;
64079;Laerm;51042;49.696;10.808;2023-06-05T06:03:03;66.01;59.27;75.01;;
64079;Laerm;51042;49.696;10.808;2023-06-05T06:05:28;67.41;58.92;72.88;;
64079;Laerm;51042;49.696;10.808;2023-06-05T06:07:54;68.88;65.97;75.38;;
64079;Laerm;51042;49.696;10.808;2023-06-05T06:10:20;68.96;66.05;78.04;;
64079;Laerm;51042;49.696;10.808;2023-06-05T06:12:45;66.18;59.51;83.65;;
64079;Laerm;51042;49.696;10.808;2023-06-05T06:15:11;64.39;59.32;80.08;;
64079;Laerm;51042;49.696;10.808;2023-06-05T06:17:37;63.89;59.02;72.25;;
64079;Laerm;51042;49.696;10.808;2023-06-05T06:20:04;61.79;45.09;71.95;;
64079;Laerm;51042;49.696;10.808;2023-06-05T06:22:29;61.26;43.53;73.24;;
64079;Laerm;51042;49.696;10.808;2023-06-05T06:24:54;62.07;44.72;75.04;;
64079;Laerm;51042;49.696;10.808;2023-06-05T06:27:20;60.88;43.94;75.73;;
64079;Laerm;51042;49.696;10.808;2023-06-05T06:29:48;61.42;45.48;76.64;;
64079;Laerm;51042;49.696;10.808;2023-06-05T06:32:16;58.70;44.31;68.54;;
64079;Laerm;51042;49.696;10.808;2023-06-05T06:34:41;60.27;42.57;73.26;;
64079;Laerm;51042;49.696;10.808;2023-06-05T06:37:09;62.04;44.13;75.48;;
64079;Laerm;51042;49.696;10.808;2023-06-05T06:39:36;58.55;42.98;73.95;;
64079;Laerm;51042;49.696;10.808;2023-06-05T06:42:02;63.87;44.42;76.10;;
64079;Laerm;51042;49.696;10.808;2023-06-05T06:44:27;60.01;44.90;71.15;;
64079;Laerm;51042;49.696;10.808;2023-06-05T06:46:53;61.60;43.80;75.42;;
64079;Laerm;51042;49.696;10.808;2023-06-05T06:49:18;66.62;44.57;82.45;;
64079;Laerm;51042;49.696;10.808;2023-06-05T06:51:44;60.82;43.16;71.22;;
64079;Laerm;51042;49.696;10.808;2023-06-05T06:54:09;61.65;42.65;74.85;;
64079;Laerm;51042;49.696;10.808;2023-06-05T06:56:34;62.16;43.84;81.69;;
64079;Laerm;51042;49.696;10.808;2023-06-05T06:59:10;63.27;44.48;82.30;;
64079;Laerm;51042;49.696;10.808;2023-06-05T07:01:35;58.77;44.14;70.46;;
64079;Laerm;51042;49.696;10.808;2023-06-05T07:04:05;60.63;43.63;77.29;;
64079;Laerm;51042;49.696;10.808;2023-06-05T07:06:30;64.99;43.86;79.89;;
64079;Laerm;51042;49.696;10.808;2023-06-05T07:08:59;66.92;43.84;85.02;;
64079;Laerm;51042;49.696;10.808;2023-06-05T07:11:25;62.03;46.59;76.82;;
64079;Laerm;51042;49.696;10.808;2023-06-05T07:13:51;60.29;42.81;73.56;;
64079;Laerm;51042;49.696;10.808;2023-06-05T07:16:18;62.81;43.73;82.65;;
64079;Laerm;51042;49.696;10.808;2023-06-05T07:18:43;61.62;44.65;75.63;;
64079;Laerm;51042;49.696;10.808;2023-06-05T07:21:08;64.23;44.26;80.76;;
64079;Laerm;51042;49.696;10.808;2023-06-05T07:23:34;63.11;44.61;73.84;;
64079;Laerm;51042;49.696;10.808;2023-06-05T07:26:00;58.73;42.93;74.96;;
64079;Laerm;51042;49.696;10.808;2023-06-05T07:28:25;62.55;43.87;79.49;;
64079;Laerm;51042;49.696;10.808;2023-06-05T07:30:50;63.39;47.31;74.54;;
64079;Laerm;51042;49.696;10.808;2023-06-05T07:33:16;59.42;43.11;70.72;;
64079;Laerm;51042;49.696;10.808;2023-06-05T07:35:42;62.81;45.77;73.75;;
64079;Laerm;51042;49.696;10.808;2023-06-05T07:38:07;64.59;46.70;79.25;;
64079;Laerm;51042;49.696;10.808;2023-06-05T07:40:33;62.14;47.41;74.61;;
64079;Laerm;51042;49.696;10.808;2023-06-05T07:42:58;62.67;46.35;85.13;;
64079;Laerm;51042;49.696;10.808;2023-06-05T07:45:24;61.84;46.23;77.48;;
64079;Laerm;51042;49.696;10.808;2023-06-05T07:47:49;63.66;46.52;78.09;;
64079;Laerm;51042;49.696;10.808;2023-06-05T07:50:15;62.95;46.85;74.76;;
64079;Laerm;51042;49.696;10.808;2023-06-05T07:52:41;61.79;43.15;75.39;;
64079;Laerm;51042;49.696;10.808;2023-06-05T07:55:07;64.53;46.07;78.24;;
64079;Laerm;51042;49.696;10.808;2023-06-05T07:57:32;63.56;48.24;75.95;;
64079;Laerm;51042;49.696;10.808;2023-06-05T07:59:58;62.99;46.60;88.90;;
64079;Laerm;51042;49.696;10.808;2023-06-05T08:02:24;64.16;51.35;76.73;;
64079;Laerm;51042;49.696;10.808;2023-06-05T08:04:49;61.77;45.35;72.74;;
64079;Laerm;51042;49.696;10.808;2023-06-05T08:07:14;59.36;45.21;70.95;;
64079;Laerm;51042;49.696;10.808;2023-06-05T08:09:40;64.27;46.68;81.43;;
64079;Laerm;51042;49.696;10.808;2023-06-05T08:12:06;61.69;45.34;71.98;;
64079;Laerm;51042;49.696;10.808;2023-06-05T08:14:33;61.03;45.57;73.89;;
64079;Laerm;51042;49.696;10.808;2023-06-05T08:16:59;61.13;44.74;79.07;;
64079;Laerm;51042;49.696;10.808;2023-06-05T08:19:24;67.00;45.39;89.16;;
64079;Laerm;51042;49.696;10.808;2023-06-05T08:21:51;66.73;46.42;83.13;;
64079;Laerm;51042;49.696;10.808;2023-06-05T08:24:17;64.41;46.95;85.77;;
64079;Laerm;51042;49.696;10.808;2023-06-05T08:26:43;64.51;44.85;82.87;;
64079;Laerm;51042;49.696;10.808;2023-06-05T08:29:08;60.87;45.85;75.01;;
64079;Laerm;51042;49.696;10.808;2023-06-05T08:31:33;66.98;47.80;81.76;;
64079;Laerm;51042;49.696;10.808;2023-06-05T08:33:59;63.75;47.94;79.83;;
64079;Laerm;51042;49.696;10.808;2023-06-05T08:36:25;67.30;46.69;83.35;;
64079;Laerm;51042;49.696;10.808;2023-06-05T08:38:50;62.23;47.58;78.38;;
64079;Laerm;51042;49.696;10.808;2023-06-05T08:41:16;62.29;46.38;73.96;;
64079;Laerm;51042;49.696;10.808;2023-06-05T08:43:42;66.25;47.45;81.97;;
64079;Laerm;51042;49.696;10.808;2023-06-05T08:46:10;64.28;47.12;79.10;;
64079;Laerm;51042;49.696;10.808;2023-06-05T08:48:47;63.26;46.03;78.33;;
64079;Laerm;51042;49.696;10.808;2023-06-05T08:51:15;64.87;49.96;81.44;;
64079;Laerm;51042;49.696;10.808;2023-06-05T08:53:43;70.01;49.77;85.91;;
64079;Laerm;51042;49.696;10.808;2023-06-05T08:56:12;66.96;46.56;82.59;;
64079;Laerm;51042;49.696;10.808;2023-06-05T08:58:38;67.42;47.82;85.65;;
64079;Laerm;51042;49.696;10.808;2023-06-05T09:01:04;61.42;46.00;78.20;;
64079;Laerm;51042;49.696;10.808;2023-06-05T09:03:32;63.26;47.33;77.44;;
64079;Laerm;51042;49.696;10.808;2023-06-05T09:05:57;61.94;45.57;78.17;;
64079;Laerm;51042;49.696;10.808;2023-06-05T09:08:31;64.82;46.25;79.80;;
64079;Laerm;51042;49.696;10.808;2023-06-05T09:11:23;66.14;44.39;84.64;;
64079;Laerm;51042;49.696;10.808;2023-06-05T09:13:49;62.08;44.78;76.83;;
64079;Laerm;51042;49.696;10.808;2023-06-05T09:16:15;61.21;47.14;77.24;;
64079;Laerm;51042;49.696;10.808;2023-06-05T09:18:57;64.10;48.49;81.10;;
64079;Laerm;51042;49.696;10.808;2023-06-05T09:21:24;63.09;46.22;81.12;;
64079;Laerm;51042;49.696;10.808;2023-06-05T09:24:10;62.48;45.75;76.96;;
64079;Laerm;51042;49.696;10.808;2023-06-05T09:26:58;64.58;46.37;87.39;;
64079;Laerm;51042;49.696;10.808;2023-06-05T09:31:55;63.59;45.26;79.71;;
64079;Laerm;51042;49.696;10.808;2023-06-05T09:34:28;64.31;47.75;76.54;;
64079;Laerm;51042;49.696;10.808;2023-06-05T09:36:58;65.56;45.12;86.45;;
64079;Laerm;51042;49.696;10.808;2023-06-05T09:39:24;62.84;44.45;79.54;;
64079;Laerm;51042;49.696;10.808;2023-06-05T09:41:52;66.72;45.77;84.41;;
64079;Laerm;51042;49.696;10.808;2023-06-05T09:44:18;66.77;46.30;80.31;;
64079;Laerm;51042;49.696;10.808;2023-06-05T09:49:17;62.52;46.06;76.73;;
64079;Laerm;51042;49.696;10.808;2023-06-05T09:51:43;65.06;45.79;87.81;;
64079;Laerm;51042;49.696;10.808;2023-06-05T09:54:10;65.55;47.14;85.33;;
64079;Laerm;51042;49.696;10.808;2023-06-05T09:56:36;66.78;47.54;84.52;;
64079;Laerm;51042;49.696;10.808;2023-06-05T09:59:05;64.47;49.18;79.62;;
64079;Laerm;51042;49.696;10.808;2023-06-05T10:01:31;69.00;51.88;86.49;;
64079;Laerm;51042;49.696;10.808;2023-06-05T10:03:59;68.74;47.27;88.05;;
64079;Laerm;51042;49.696;10.808;2023-06-05T10:06:26;69.78;48.92;87.48;;
64079;Laerm;51042;49.696;10.808;2023-06-05T10:08:53;68.31;46.43;84.25;;
64079;Laerm;51042;49.696;10.808;2023-06-05T10:11:21;67.86;45.67;92.53;;
64079;Laerm;51042;49.696;10.808;2023-06-05T10:13:47;72.24;48.79;91.57;;
64079;Laerm;51042;49.696;10.808;2023-06-05T10:16:13;71.62;47.73;90.72;;
64079;Laerm;51042;49.696;10.808;2023-06-05T10:18:39;68.00;45.54;91.07;;
64079;Laerm;51042;49.696;10.808;2023-06-05T10:21:05;65.86;45.36;85.03;;
64079;Laerm;51042;49.696;10.808;2023-06-05T10:23:32;71.23;44.99;91.11;;
64079;Laerm;51042;49.696;10.808;2023-06-05T10:25:58;67.25;48.23;87.18;;
64079;Laerm;51042;49.696;10.808;2023-06-05T10:28:49;70.41;46.34;88.62;;
64079;Laerm;51042;49.696;10.808;2023-06-05T10:31:30;68.05;45.48;85.60;;
64079;Laerm;51042;49.696;10.808;2023-06-05T10:34:05;63.41;46.21;80.23;;
64079;Laerm;51042;49.696;10.808;2023-06-05T10:36:53;65.93;46.89;87.21;;
64079;Laerm;51042;49.696;10.808;2023-06-05T10:39:24;64.82;46.96;87.68;;
64079;Laerm;51042;49.696;10.808;2023-06-05T10:41:51;62.30;46.19;82.80;;
64079;Laerm;51042;49.696;10.808;2023-06-05T10:44:16;61.91;44.53;78.62;;
64079;Laerm;51042;49.696;10.808;2023-06-05T10:46:42;63.44;45.20;82.07;;
64079;Laerm;51042;49.696;10.808;2023-06-05T10:49:14;63.54;44.73;86.91;;
64079;Laerm;51042;49.696;10.808;2023-06-05T10:51:48;64.26;47.34;82.13;;
64079;Laerm;51042;49.696;10.808;2023-06-05T10:54:14;71.48;48.58;92.41;;
64079;Laerm;51042;49.696;10.808;2023-06-05T10:57:01;69.94;46.30;85.50;;
64079;Laerm;51042;49.696;10.808;2023-06-05T10:59:30;68.24;45.05;90.96;;
64079;Laerm;51042;49.696;10.808;2023-06-05T11:07:20;64.56;47.96;76.79;;
64079;Laerm;51042;49.696;10.808;2023-06-05T11:15:14;65.30;46.72;80.50;;
64079;Laerm;51042;49.696;10.808;2023-06-05T11:17:41;68.97;48.80;89.73;;
64079;Laerm;51042;49.696;10.808;2023-06-05T11:20:07;68.71;48.46;85.87;;
64079;Laerm;51042;49.696;10.808;2023-06-05T11:30:12;64.74;46.50;82.86;;
64079;Laerm;51042;49.696;10.808;2023-06-05T11:32:38;68.74;46.16;87.88;;
64079;Laerm;51042;49.696;10.808;2023-06-05T11:35:04;70.95;48.02;91.31;;
64079;Laerm;51042;49.696;10.808;2023-06-05T11:37:30;68.50;47.47;84.99;;
64079;Laerm;51042;49.696;10.808;2023-06-05T11:39:58;72.01;48.18;88.70;;
64079;Laerm;51042;49.696;10.808;2023-06-05T11:42:23;68.08;46.31;83.61;;
64079;Laerm;51042;49.696;10.808;2023-06-05T11:44:49;70.47;50.40;91.22;;
64079;Laerm;51042;49.696;10.808;2023-06-05T11:47:24;73.26;48.94;92.25;;
64079;Laerm;51042;49.696;10.808;2023-06-05T11:49:50;74.28;47.26;92.40;;
64079;Laerm;51042;49.696;10.808;2023-06-05T11:52:20;66.55;47.39;83.37;;
64079;Laerm;51042;49.696;10.808;2023-06-05T11:54:47;66.29;49.97;82.02;;
64079;Laerm;51042;49.696;10.808;2023-06-05T11:57:39;65.75;46.82;84.01;;
64079;Laerm;51042;49.696;10.808;2023-06-05T12:00:05;65.89;47.10;83.49;;
64079;Laerm;51042;49.696;10.808;2023-06-05T12:02:33;66.43;47.68;84.10;;
64079;Laerm;51042;49.696;10.808;2023-06-05T12:04:58;65.49;48.31;80.45;;
64079;Laerm;51042;49.696;10.808;2023-06-05T12:07:28;64.47;48.53;77.66;;
64079;Laerm;51042;49.696;10.808;2023-06-05T12:09:53;61.81;47.24;73.61;;
64079;Laerm;51042;49.696;10.808;2023-06-05T12:12:19;62.15;47.12;71.18;;
64079;Laerm;51042;49.696;10.808;2023-06-05T12:14:45;64.56;46.84;76.49;;
64079;Laerm;51042;49.696;10.808;2023-06-05T12:17:11;71.68;47.21;89.89;;
64079;Laerm;51042;49.696;10.808;2023-06-05T12:19:37;69.61;48.33;86.84;;
64079;Laerm;51042;49.696;10.808;2023-06-05T12:22:03;70.87;49.87;90.83;;
64079;Laerm;51042;49.696;10.808;2023-06-05T12:24:30;67.60;47.87;87.15;;
64079;Laerm;51042;49.696;10.808;2023-06-05T12:29:25;70.47;47.73;86.27;;
64079;Laerm;51042;49.696;10.808;2023-06-05T12:31:52;69.15;49.32;87.34;;
64079;Laerm;51042;49.696;10.808;2023-06-05T12:34:17;68.65;53.38;85.44;;
64079;Laerm;51042;49.696;10.808;2023-06-05T12:36:44;67.21;50.01;82.41;;
64079;Laerm;51042;49.696;10.808;2023-06-05T12:39:11;64.85;48.77;82.49;;
64079;Laerm;51042;49.696;10.808;2023-06-05T12:41:38;64.44;47.32;83.23;;
64079;Laerm;51042;49.696;10.808;2023-06-05T12:44:04;66.16;46.12;80.60;;
64079;Laerm;51042;49.696;10.808;2023-06-05T12:46:32;66.19;47.10;86.03;;
64079;Laerm;51042;49.696;10.808;2023-06-05T12:48:59;65.45;46.97;79.97;;
64079;Laerm;51042;49.696;10.808;2023-06-05T12:51:25;72.43;51.84;91.46;;
64079;Laerm;51042;49.696;10.808;2023-06-05T12:53:52;63.54;45.84;78.05;;
64079;Laerm;51042;49.696;10.808;2023-06-05T12:56:18;64.49;52.37;81.53;;
64079;Laerm;51042;49.696;10.808;2023-06-05T12:58:43;67.65;49.68;86.62;;
64079;Laerm;51042;49.696;10.808;2023-06-05T13:01:08;65.83;45.29;78.48;;
64079;Laerm;51042;49.696;10.808;2023-06-05T13:03:34;62.67;45.82;80.75;;
64079;Laerm;51042;49.696;10.808;2023-06-05T13:05:59;69.08;44.48;86.82;;
64079;Laerm;51042;49.696;10.808;2023-06-05T13:08:24;64.84;46.81;80.33;;
64079;Laerm;51042;49.696;10.808;2023-06-05T13:10:50;66.04;49.46;87.69;;
64079;Laerm;51042;49.696;10.808;2023-06-05T13:13:16;63.41;47.11;78.53;;
64079;Laerm;51042;49.696;10.808;2023-06-05T13:15:42;66.86;46.04;84.16;;
64079;Laerm;51042;49.696;10.808;2023-06-05T13:18:07;70.27;44.91;89.64;;
64079;Laerm;51042;49.696;10.808;2023-06-05T13:20:34;70.10;49.69;88.32;;
64079;Laerm;51042;49.696;10.808;2023-06-05T13:23:00;71.02;53.33;87.43;;
64079;Laerm;51042;49.696;10.808;2023-06-05T13:25:25;67.34;48.87;86.48;;
64079;Laerm;51042;49.696;10.808;2023-06-05T13:27:51;66.97;50.16;86.21;;
64079;Laerm;51042;49.696;10.808;2023-06-05T13:30:16;64.33;44.90;80.68;;
64079;Laerm;51042;49.696;10.808;2023-06-05T13:32:41;67.70;48.75;83.74;;
64079;Laerm;51042;49.696;10.808;2023-06-05T13:35:10;66.90;48.14;86.35;;
64079;Laerm;51042;49.696;10.808;2023-06-05T13:37:37;61.35;45.30;76.95;;
64079;Laerm;51042;49.696;10.808;2023-06-05T13:40:03;64.06;46.69;81.34;;
64079;Laerm;51042;49.696;10.808;2023-06-05T13:42:32;63.58;46.75;76.91;;
64079;Laerm;51042;49.696;10.808;2023-06-05T13:44:57;73.26;50.81;96.80;;
64079;Laerm;51042;49.696;10.808;2023-06-05T13:47:22;70.25;47.96;88.30;;
64079;Laerm;51042;49.696;10.808;2023-06-05T13:49:48;68.12;47.44;84.26;;
64079;Laerm;51042;49.696;10.808;2023-06-05T13:52:13;63.11;45.74;79.11;;
64079;Laerm;51042;49.696;10.808;2023-06-05T13:54:38;63.85;45.73;81.19;;
64079;Laerm;51042;49.696;10.808;2023-06-05T13:57:06;64.61;45.18;80.95;;